This is the latest recevied weather packets stored in our database for station/object WA1TYB-13. If no packets are shown the sender has not sent any weather packets the latest 10 day(s).
| Time | Temp. | Humidity | Pressure | Rain* | Wind** | Luminosity | Snow |
|---|---|---|---|---|---|---|---|
| 1778180770 | 16.11° C | 50% | 1015.2 hPa | 0 mm | - | 272 W/m² | - |
| 1778180469 | 16.11° C | 52% | 1015.4 hPa | 0 mm | - | 330 W/m² | - |
| 1778180167 | 16.11° C | 51% | 1015.3 hPa | 0 mm | - | 306 W/m² | - |
| 1778179863 | 15.56° C | 55% | 1015.6 hPa | 0 mm | - | 316 W/m² | - |
| 1778179561 | 15.56° C | 56% | 1015.6 hPa | 0 mm | - | 278 W/m² | - |
| 1778179259 | 15.56° C | 53% | 1015.7 hPa | 0 mm | - | 326 W/m² | - |
| 1778178955 | 16.11° C | 51% | 1015.4 hPa | 0 mm | - | 372 W/m² | - |
| 1778178652 | 16.11° C | 52% | 1015.7 hPa | 0 mm | - | 492 W/m² | - |
| 1778178348 | 15.56° C | 57% | 1015.4 hPa | 0 mm | - | 347 W/m² | - |
| 1778178044 | 15° C | 63% | 1015.6 hPa | 0 mm | - | 603 W/m² | - |
| 1778177742 | 14.44° C | 64% | 1015.6 hPa | 0 mm | - | 236 W/m² | - |
| 1778177437 | 15° C | 62% | 1015.6 hPa | 1.78 mm | - | 242 W/m² | - |
| 1778177134 | 14.44° C | 60% | 1015.7 hPa | 3.05 mm | - | 300 W/m² | - |
| 1778176831 | 14.44° C | 60% | 1015.7 hPa | 1.27 mm | - | 152 W/m² | - |
| 1778176527 | 15° C | 56% | 1015.7 hPa | 0 mm | - | 84 W/m² | - |
| 1778176225 | 14.44° C | 59% | 1015.4 hPa | 0 mm | - | 166 W/m² | - |
| 1778175922 | 15° C | 60% | 1015.4 hPa | 0 mm | - | 101 W/m² | - |
| 1778175620 | 15° C | 58% | 1015.3 hPa | 0 mm | - | 65 W/m² | - |
| 1778175316 | 16.11° C | 52% | 1015.6 hPa | 0 mm | - | 87 W/m² | - |
| 1778175014 | 16.67° C | 50% | 1015.1 hPa | 0 mm | - | 197 W/m² | - |
| 1778174709 | 16.67° C | 49% | 1015.1 hPa | 0 mm | - | 218 W/m² | - |
| 1778174406 | 16.67° C | 55% | 1015.1 hPa | 0 mm | - | 433 W/m² | - |
| 1778174101 | 16.67° C | 55% | 1015.2 hPa | 0 mm | - | 824 W/m² | - |
| 1778173799 | 16.11° C | 56% | 1015.2 hPa | 0 mm | - | 712 W/m² | - |
| 1778173496 | 16.11° C | 57% | 1015.1 hPa | 0 mm | - | 668 W/m² | - |
* Rain latest hour (hover to see other rain measurements)
** Current wind speed in m/s (hover to see current wind gust speed)